createdAt,value
2018-04-23T00:01:31.315Z,13.70
2018-04-23T00:03:59.013Z,13.70
2018-04-23T00:06:27.481Z,13.80
2018-04-23T00:08:55.144Z,13.80
2018-04-23T00:11:22.772Z,13.80
2018-04-23T00:13:50.439Z,13.80
2018-04-23T00:16:18.112Z,13.80
2018-04-23T00:18:45.746Z,13.80
2018-04-23T00:21:13.414Z,13.90
2018-04-23T00:23:41.079Z,14.00
2018-04-23T00:26:08.702Z,14.00
2018-04-23T00:28:36.365Z,14.10
2018-04-23T00:31:04.078Z,14.20
2018-04-23T00:33:31.705Z,14.20
2018-04-23T00:35:59.380Z,14.30
2018-04-23T00:38:27.043Z,14.40
2018-04-23T00:40:54.715Z,14.50
2018-04-23T00:43:22.375Z,14.50
2018-04-23T00:45:50.043Z,14.60
2018-04-23T00:48:18.453Z,14.70
2018-04-23T00:50:46.110Z,14.70
2018-04-23T00:53:25.638Z,14.90
2018-04-23T00:55:53.283Z,15.00
2018-04-23T00:58:21.703Z,15.10
2018-04-23T01:00:49.342Z,15.10
2018-04-23T01:03:16.994Z,15.10
2018-04-23T01:05:45.444Z,15.00
2018-04-23T01:08:13.082Z,15.00
2018-04-23T01:10:40.752Z,15.10
2018-04-23T01:13:08.428Z,15.00
2018-04-23T01:15:36.104Z,15.00
2018-04-23T01:18:04.537Z,14.80
2018-04-23T01:20:32.228Z,14.80
2018-04-23T01:22:59.879Z,14.70
2018-04-23T01:25:27.546Z,14.50
2018-04-23T01:27:55.224Z,14.40
2018-04-23T01:30:22.853Z,14.30
2018-04-23T01:32:50.549Z,14.10
2018-04-23T01:35:18.207Z,14.00
2018-04-23T01:37:46.654Z,14.00
2018-04-23T01:40:14.328Z,13.90
2018-04-23T01:42:41.991Z,13.90
2018-04-23T01:45:09.642Z,13.90
2018-04-23T01:47:37.321Z,13.90
2018-04-23T01:50:05.778Z,13.80
2018-04-23T01:52:33.437Z,13.80
2018-04-23T01:55:01.107Z,13.80
2018-04-23T01:57:28.780Z,13.80
2018-04-23T01:59:56.402Z,13.80
2018-04-23T02:02:24.184Z,13.70
2018-04-23T02:04:51.914Z,13.70
2018-04-23T02:07:19.555Z,13.60
2018-04-23T02:09:47.199Z,13.60
2018-04-23T02:12:14.865Z,13.60
2018-04-23T02:14:42.503Z,13.50
2018-04-23T02:17:10.943Z,13.30
2018-04-23T02:19:38.637Z,13.30
2018-04-23T02:22:06.277Z,13.30
2018-04-23T02:24:33.941Z,13.20
2018-04-23T02:27:01.603Z,13.10
2018-04-23T02:29:29.284Z,13.00
2018-04-23T02:31:57.723Z,13.00
2018-04-23T02:34:25.403Z,12.90
2018-04-23T02:36:53.090Z,12.90
2018-04-23T02:39:21.530Z,12.90
2018-04-23T02:41:49.201Z,12.90
2018-04-23T02:44:16.846Z,12.90
2018-04-23T02:46:44.524Z,12.80
2018-04-23T02:49:12.214Z,12.80
2018-04-23T02:51:40.620Z,12.70
2018-04-23T02:54:08.287Z,12.70
2018-04-23T02:56:35.962Z,12.70
2018-04-23T02:59:03.699Z,12.70
2018-04-23T03:01:31.358Z,12.70
2018-04-23T03:03:59.017Z,12.70
2018-04-23T03:06:26.638Z,12.70
2018-04-23T03:08:55.132Z,12.70
2018-04-23T03:11:23.598Z,12.70
2018-04-23T03:13:52.046Z,12.70
2018-04-23T03:16:19.802Z,12.70
2018-04-23T03:18:47.440Z,12.70
2018-04-23T03:21:15.083Z,12.80
2018-04-23T03:23:42.761Z,12.80
2018-04-23T03:26:10.412Z,12.90
2018-04-23T03:28:38.053Z,12.90
2018-04-23T03:31:05.724Z,12.90
2018-04-23T03:33:33.391Z,12.80
2018-04-23T03:36:01.017Z,12.80
2018-04-23T03:38:28.783Z,12.70
2018-04-23T03:40:56.507Z,12.80
2018-04-23T03:43:24.192Z,12.80
2018-04-23T03:45:51.872Z,12.80
2018-04-23T03:48:20.314Z,12.80
2018-04-23T03:50:47.954Z,12.80
2018-04-23T03:53:15.692Z,12.90
2018-04-23T03:55:44.130Z,12.90
2018-04-23T03:58:11.757Z,12.90
2018-04-23T04:00:39.426Z,13.00
2018-04-23T04:03:07.087Z,13.10
2018-04-23T04:05:34.724Z,13.10
2018-04-23T04:08:03.203Z,13.00
2018-04-23T04:10:30.868Z,13.00
2018-04-23T04:13:10.226Z,13.00
2018-04-23T04:15:49.695Z,12.90
2018-04-23T04:18:38.938Z,12.90
2018-04-23T04:21:06.615Z,12.90
2018-04-23T04:23:34.255Z,12.90
2018-04-23T04:26:02.018Z,12.80
2018-04-23T04:28:30.593Z,12.80
2018-04-23T04:30:58.294Z,12.90
2018-04-23T04:33:26.758Z,12.80
2018-04-23T04:35:54.447Z,12.80
2018-04-23T04:38:22.847Z,12.90
2018-04-23T04:40:50.523Z,12.90
2018-04-23T04:43:18.227Z,13.00
2018-04-23T04:45:46.639Z,13.10
2018-04-23T04:48:14.308Z,13.10
2018-04-23T04:50:42.015Z,13.20
2018-04-23T04:53:09.695Z,13.30
2018-04-23T04:55:37.350Z,13.40
2018-04-23T04:58:05.801Z,13.50
2018-04-23T05:00:33.426Z,13.50
2018-04-23T05:03:01.108Z,13.50
2018-04-23T05:05:28.805Z,13.60
2018-04-23T05:07:56.450Z,13.60
2018-04-23T05:10:24.138Z,13.70
2018-04-23T05:12:52.572Z,13.70
2018-04-23T05:15:20.212Z,13.70
2018-04-23T05:17:47.877Z,13.80
2018-04-23T05:20:15.545Z,13.70
2018-04-23T05:22:45.237Z,13.70
2018-04-23T05:25:12.895Z,13.70
2018-04-23T05:27:40.622Z,13.70
2018-04-23T05:30:08.244Z,13.80
2018-04-23T05:32:35.940Z,13.80
2018-04-23T05:35:04.444Z,14.00
2018-04-23T05:37:32.164Z,13.90
2018-04-23T05:39:59.866Z,14.10
2018-04-23T05:42:27.544Z,14.20
2018-04-23T05:44:55.174Z,14.30
2018-04-23T05:47:23.606Z,14.60
2018-04-23T05:49:51.273Z,14.60
2018-04-23T05:52:19.736Z,14.80
2018-04-23T05:54:47.399Z,14.70
2018-04-23T05:57:15.069Z,14.80
2018-04-23T05:59:42.722Z,14.90
2018-04-23T06:02:10.443Z,15.10
2018-04-23T06:04:38.122Z,15.20
2018-04-23T06:07:05.778Z,15.40
2018-04-23T06:09:33.450Z,15.50
2018-04-23T06:12:02.456Z,15.80
2018-04-23T06:14:31.476Z,15.90
2018-04-23T06:16:59.412Z,15.90
2018-04-23T06:19:27.158Z,16.10
2018-04-23T06:21:54.921Z,16.20
2018-04-23T06:24:22.646Z,16.40
2018-04-23T06:26:50.358Z,16.60
2018-04-23T06:29:18.005Z,16.80
2018-04-23T06:31:45.665Z,17.10
2018-04-23T06:34:13.391Z,17.40
2018-04-23T06:36:41.802Z,18.00
2018-04-23T06:39:09.485Z,18.00
2018-04-23T06:41:37.141Z,18.30
2018-04-23T06:44:04.767Z,18.40
2018-04-23T06:46:32.444Z,18.50
2018-04-23T06:49:00.115Z,18.70
2018-04-23T06:51:27.773Z,18.80
2018-04-23T06:53:55.446Z,18.80
2018-04-23T06:56:23.175Z,18.80
2018-04-23T06:58:50.816Z,18.80
2018-04-23T07:01:19.251Z,18.90
2018-04-23T07:03:46.905Z,18.90
2018-04-23T07:06:14.559Z,19.00
2018-04-23T07:08:42.231Z,19.00
2018-04-23T07:11:09.910Z,19.10
2018-04-23T07:13:37.562Z,19.20
2018-04-23T07:16:05.234Z,19.20
2018-04-23T07:18:32.919Z,19.30
2018-04-23T07:21:01.349Z,19.30
2018-04-23T07:23:29.035Z,19.30
2018-04-23T07:25:56.706Z,19.30
2018-04-23T07:28:24.382Z,19.50
2018-04-23T07:30:52.041Z,19.50
2018-04-23T07:33:19.744Z,19.50
2018-04-23T07:35:47.391Z,19.60
2018-04-23T07:38:15.057Z,19.80
2018-04-23T07:40:42.724Z,19.80
2018-04-23T07:43:10.389Z,19.80
2018-04-23T07:45:38.046Z,19.80
2018-04-23T07:48:05.783Z,19.90
2018-04-23T07:50:33.418Z,19.90
2018-04-23T07:53:01.847Z,20.00
2018-04-23T07:55:29.510Z,20.00
2018-04-23T07:57:57.151Z,20.10
2018-04-23T08:00:24.855Z,20.20
2018-04-23T08:02:52.534Z,20.30
2018-04-23T08:05:20.934Z,20.40
2018-04-23T08:07:48.612Z,20.40
2018-04-23T08:10:16.266Z,20.60
2018-04-23T08:12:43.902Z,20.70
2018-04-23T08:15:11.592Z,20.80
2018-04-23T08:17:39.292Z,20.90
2018-04-23T08:20:06.950Z,21.00
2018-04-23T08:22:34.634Z,21.20
2018-04-23T08:25:03.059Z,21.60
2018-04-23T08:27:30.678Z,21.60
2018-04-23T08:29:58.566Z,21.80
2018-04-23T08:32:26.263Z,22.10
2018-04-23T08:34:53.911Z,22.20
2018-04-23T08:37:21.579Z,22.20
2018-04-23T08:39:49.229Z,22.20
2018-04-23T08:42:16.895Z,22.10
2018-04-23T08:44:44.595Z,22.10
2018-04-23T08:47:12.263Z,22.20
2018-04-23T08:49:40.678Z,22.60
2018-04-23T08:52:08.349Z,22.60
2018-04-23T08:54:36.054Z,23.10
2018-04-23T08:57:04.462Z,24.20
2018-04-23T08:59:32.152Z,24.20
2018-04-23T09:01:59.814Z,24.50
2018-04-23T09:04:27.448Z,24.60
2018-04-23T09:06:55.104Z,24.90
2018-04-23T09:09:22.764Z,25.00
2018-04-23T09:11:50.854Z,25.10
2018-04-23T09:14:18.513Z,25.10
2018-04-23T09:16:46.187Z,25.10
2018-04-23T09:19:13.820Z,25.10
2018-04-23T09:21:42.291Z,25.40
2018-04-23T09:24:10.154Z,25.40
2018-04-23T09:26:37.778Z,25.40
2018-04-23T09:29:05.449Z,25.10
2018-04-23T09:31:33.949Z,24.80
2018-04-23T09:34:01.757Z,24.80
2018-04-23T09:36:29.525Z,24.80
2018-04-23T09:38:57.198Z,24.90
2018-04-23T09:41:24.995Z,24.90
2018-04-23T09:43:52.718Z,25.00
2018-04-23T09:46:20.384Z,25.10
2018-04-23T09:48:48.031Z,25.10
2018-04-23T09:51:15.708Z,25.10
2018-04-23T09:53:44.168Z,25.40
2018-04-23T09:56:11.808Z,25.40
2018-04-23T09:58:39.525Z,25.70
2018-04-23T10:01:12.843Z,25.90
2018-04-23T10:03:42.347Z,25.80
2018-04-23T10:06:10.066Z,25.40
2018-04-23T10:08:37.721Z,25.20
2018-04-23T10:11:05.398Z,24.90
2018-04-23T10:13:33.824Z,24.60
2018-04-23T10:16:01.474Z,24.60
2018-04-23T10:18:29.140Z,24.50
2018-04-23T10:20:56.817Z,24.30
2018-04-23T10:23:24.467Z,23.90
2018-04-23T10:25:52.296Z,23.70
2018-04-23T10:28:19.972Z,23.60
2018-04-23T10:30:47.621Z,23.50
2018-04-23T10:33:15.298Z,23.60
2018-04-23T10:35:43.018Z,23.60
2018-04-23T10:38:11.428Z,23.70
2018-04-23T10:40:39.094Z,23.70
2018-04-23T10:43:06.764Z,23.80
2018-04-23T10:45:34.387Z,23.90
2018-04-23T10:48:02.831Z,24.00
2018-04-23T10:50:30.517Z,24.00
2018-04-23T10:52:58.930Z,24.00
2018-04-23T10:55:26.619Z,24.00
2018-04-23T10:57:54.301Z,24.00
2018-04-23T11:00:21.970Z,24.00
2018-04-23T11:02:50.408Z,24.10
2018-04-23T11:05:18.074Z,24.10
2018-04-23T11:07:45.767Z,24.20
2018-04-23T11:10:14.260Z,24.10
2018-04-23T11:12:41.967Z,24.10
2018-04-23T11:15:09.579Z,24.20
2018-04-23T11:17:38.072Z,24.40
2018-04-23T11:20:05.710Z,24.40
2018-04-23T11:22:33.377Z,24.40
2018-04-23T11:25:01.094Z,24.40
2018-04-23T11:27:28.770Z,24.50
2018-04-23T11:29:56.402Z,24.60
2018-04-23T11:32:24.091Z,24.50
2018-04-23T11:34:51.760Z,24.60
2018-04-23T11:37:19.392Z,24.60
2018-04-23T11:39:47.060Z,24.50
2018-04-23T11:42:15.506Z,24.20
2018-04-23T11:44:43.162Z,24.10
2018-04-23T11:47:10.842Z,24.00
2018-04-23T11:49:38.499Z,23.90
2018-04-23T11:52:06.174Z,23.70
2018-04-23T11:54:33.874Z,23.60
2018-04-23T11:57:02.330Z,23.40
2018-04-23T11:59:29.984Z,23.40
2018-04-23T12:01:57.644Z,23.50
2018-04-23T12:04:25.413Z,23.50
2018-04-23T12:06:53.000Z,23.60
2018-04-23T12:09:21.460Z,23.60
2018-04-23T12:11:49.118Z,23.60
2018-04-23T12:14:16.765Z,23.70
2018-04-23T12:16:44.438Z,23.80
2018-04-23T12:19:12.131Z,24.00
2018-04-23T12:21:40.615Z,24.30
2018-04-23T12:24:08.250Z,24.30
2018-04-23T12:26:36.706Z,24.50
2018-04-23T12:29:04.379Z,24.50
2018-04-23T12:31:32.054Z,24.60
2018-04-23T12:34:00.529Z,24.70
2018-04-23T12:36:28.183Z,24.70
2018-04-23T12:38:55.867Z,24.60
2018-04-23T12:41:24.308Z,24.40
2018-04-23T12:43:51.945Z,24.40
2018-04-23T12:46:19.679Z,24.50
2018-04-23T12:48:47.499Z,24.50
2018-04-23T12:51:15.299Z,24.40
2018-04-23T12:53:43.054Z,24.50
2018-04-23T12:56:11.558Z,24.60
2018-04-23T12:58:39.205Z,24.60
2018-04-23T13:01:06.896Z,24.60
2018-04-23T13:03:34.617Z,24.60
2018-04-23T13:06:02.323Z,24.60
2018-04-23T13:08:30.035Z,24.40
2018-04-23T13:10:58.523Z,24.30
2018-04-23T13:13:26.207Z,24.40
2018-04-23T13:15:53.876Z,24.30
2018-04-23T13:18:21.605Z,24.30
2018-04-23T13:20:49.258Z,24.30
2018-04-23T13:23:17.695Z,24.40
2018-04-23T13:25:45.413Z,24.40
2018-04-23T13:28:13.054Z,24.50
2018-04-23T13:30:41.516Z,23.90
2018-04-23T13:33:09.195Z,23.90
2018-04-23T13:35:37.604Z,23.80
2018-04-23T13:38:05.296Z,23.80
2018-04-23T13:40:32.987Z,23.70
2018-04-23T13:43:01.414Z,23.50
2018-04-23T13:45:29.955Z,23.20
2018-04-23T13:47:58.411Z,22.80
2018-04-23T13:50:26.148Z,22.80
2018-04-23T13:52:53.966Z,22.60
2018-04-23T13:55:21.639Z,22.50
2018-04-23T13:57:49.276Z,22.40
2018-04-23T14:00:17.035Z,22.50
2018-04-23T14:02:45.555Z,22.70
2018-04-23T14:05:13.223Z,22.60
2018-04-23T14:07:40.913Z,22.70
2018-04-23T14:10:08.658Z,22.80
2018-04-23T14:12:36.315Z,22.80
2018-04-23T14:15:04.067Z,22.70
2018-04-23T14:17:31.779Z,22.60
2018-04-23T14:20:00.235Z,21.90
2018-04-23T14:22:27.895Z,21.80
2018-04-23T14:24:55.570Z,21.50
2018-04-23T14:27:23.212Z,21.30
2018-04-23T14:29:50.954Z,21.20
2018-04-23T14:32:18.596Z,21.20
2018-04-23T14:34:47.836Z,21.10
2018-04-23T14:37:15.642Z,21.00
2018-04-23T14:39:43.309Z,20.80
2018-04-23T14:42:10.939Z,20.70
2018-04-23T14:44:39.376Z,20.50
2018-04-23T14:47:07.052Z,20.40
2018-04-23T14:49:34.713Z,20.40
2018-04-23T14:52:02.401Z,20.40
2018-04-23T14:54:30.086Z,20.20
2018-04-23T14:56:57.748Z,20.10
2018-04-23T14:59:25.474Z,19.90
2018-04-23T15:01:53.264Z,19.90
2018-04-23T15:04:20.915Z,19.90
2018-04-23T15:06:48.573Z,20.00
2018-04-23T15:09:17.023Z,20.20
2018-04-23T15:11:44.815Z,20.10
2018-04-23T15:14:13.279Z,20.00
2018-04-23T15:16:41.026Z,20.00
2018-04-23T15:19:08.679Z,20.00
2018-04-23T15:21:36.977Z,20.00
2018-04-23T15:24:04.650Z,19.90
2018-04-23T15:26:33.096Z,19.50
2018-04-23T15:29:00.767Z,19.40
2018-04-23T15:31:28.438Z,19.30
2018-04-23T15:33:56.861Z,19.20
2018-04-23T15:36:24.606Z,19.20
2018-04-23T15:38:52.270Z,19.20
2018-04-23T15:41:19.928Z,19.10
2018-04-23T15:43:47.596Z,19.00
2018-04-23T15:46:15.278Z,18.90
2018-04-23T15:48:42.925Z,18.90
2018-04-23T15:51:10.608Z,18.70
2018-04-23T15:53:38.289Z,18.60
2018-04-23T15:56:05.954Z,18.40
2018-04-23T15:58:33.637Z,18.20
2018-04-23T16:01:01.347Z,18.20
2018-04-23T16:03:28.988Z,18.10
2018-04-23T16:05:56.659Z,18.10
2018-04-23T16:08:24.777Z,18.00
2018-04-23T16:10:53.248Z,18.00
2018-04-23T16:13:20.929Z,18.00
2018-04-23T16:15:49.368Z,18.00
2018-04-23T16:18:17.140Z,18.00
2018-04-23T16:20:44.873Z,18.00
2018-04-23T16:23:12.554Z,18.00
2018-04-23T16:25:40.377Z,17.90
2018-04-23T16:28:09.219Z,17.90
2018-04-23T16:30:37.679Z,17.90
2018-04-23T16:33:05.490Z,17.90
2018-04-23T16:35:33.190Z,18.00
2018-04-23T16:38:01.103Z,18.00
2018-04-23T16:40:28.766Z,18.00
2018-04-23T16:42:56.448Z,18.00
2018-04-23T16:45:24.161Z,17.90
2018-04-23T16:47:53.637Z,17.80
2018-04-23T16:50:21.626Z,17.80
2018-04-23T16:52:50.112Z,17.70
2018-04-23T16:55:17.762Z,17.60
2018-04-23T16:57:45.840Z,17.60
2018-04-23T17:00:13.528Z,17.50
2018-04-23T17:02:41.240Z,17.50
2018-04-23T17:05:09.926Z,17.30
2018-04-23T17:07:37.938Z,17.30
2018-04-23T17:10:05.700Z,17.30
2018-04-23T17:12:34.162Z,17.20
2018-04-23T17:15:01.907Z,17.10
2018-04-23T17:17:29.571Z,17.20
2018-04-23T17:19:57.230Z,17.10
2018-04-23T17:22:25.062Z,17.10
2018-04-23T17:24:53.516Z,17.10
2018-04-23T17:27:21.406Z,17.10
2018-04-23T17:29:49.181Z,17.10
2018-04-23T17:32:16.848Z,17.00
2018-04-23T17:34:44.892Z,17.00
2018-04-23T17:37:12.915Z,17.00
2018-04-23T17:39:40.623Z,17.00
2018-04-23T17:42:08.658Z,17.00
2018-04-23T17:44:36.384Z,17.00
2018-04-23T17:47:04.041Z,17.00
2018-04-23T17:49:31.968Z,17.00
2018-04-23T17:51:59.663Z,17.00
2018-04-23T17:54:27.351Z,17.00
2018-04-23T17:56:55.017Z,17.00
2018-04-23T17:59:22.730Z,16.90
2018-04-23T18:01:50.608Z,16.90
2018-04-23T18:04:18.617Z,16.80
2018-04-23T18:06:47.158Z,16.70
2018-04-23T18:09:15.730Z,16.80
2018-04-23T18:11:43.658Z,16.70
2018-04-23T18:14:11.447Z,16.80
2018-04-23T18:16:39.246Z,16.80
2018-04-23T18:19:06.963Z,16.80
2018-04-23T18:21:35.164Z,16.90
2018-04-23T18:24:02.821Z,16.90
2018-04-23T18:26:30.542Z,16.80
2018-04-23T18:28:59.357Z,16.90
2018-04-23T18:31:27.434Z,16.90
2018-04-23T18:33:58.398Z,16.80
2018-04-23T18:36:26.524Z,16.80
2018-04-23T18:38:54.961Z,16.90
2018-04-23T18:41:22.678Z,16.80
2018-04-23T18:43:50.362Z,16.80
2018-04-23T18:46:18.045Z,16.80
2018-04-23T18:48:45.733Z,16.80
2018-04-23T18:51:14.633Z,16.80
2018-04-23T18:53:42.598Z,16.70
2018-04-23T18:56:10.399Z,16.80
2018-04-23T18:58:38.143Z,16.80
2018-04-23T19:01:06.143Z,16.80
2018-04-23T19:03:33.915Z,16.70
2018-04-23T19:06:02.407Z,16.70
2018-04-23T19:08:30.872Z,16.80
2018-04-23T19:10:58.633Z,16.80
2018-04-23T19:13:26.781Z,16.80
2018-04-23T19:15:54.800Z,16.80
2018-04-23T19:18:22.509Z,16.90
2018-04-23T19:20:50.720Z,16.90
2018-04-23T19:23:18.828Z,16.80
2018-04-23T19:25:46.542Z,16.80
2018-04-23T19:28:15.635Z,16.80
2018-04-23T19:30:44.223Z,16.90
2018-04-23T19:33:12.447Z,16.80
2018-04-23T19:35:40.312Z,16.90
2018-04-23T19:38:08.235Z,16.90
2018-04-23T19:40:36.705Z,16.80
2018-04-23T19:43:04.496Z,16.80
2018-04-23T19:45:32.546Z,16.80
2018-04-23T19:48:00.276Z,16.80
2018-04-23T19:50:28.037Z,16.80
2018-04-23T19:52:55.849Z,16.70
2018-04-23T19:55:23.589Z,16.70
2018-04-23T19:57:52.089Z,16.50
2018-04-23T20:00:20.009Z,16.50
2018-04-23T20:02:47.922Z,16.50
2018-04-23T20:05:15.712Z,16.50
2018-04-23T20:07:43.371Z,16.40
2018-04-23T20:10:11.146Z,16.40
2018-04-23T20:12:38.986Z,16.40
2018-04-23T20:15:06.890Z,16.30
2018-04-23T20:17:34.744Z,16.30
2018-04-23T20:20:02.460Z,16.30
2018-04-23T20:22:30.271Z,16.20
2018-04-23T20:24:57.957Z,16.20
2018-04-23T20:27:25.635Z,16.20
2018-04-23T20:29:54.035Z,16.20
2018-04-23T20:32:21.715Z,16.20
2018-04-23T20:34:49.419Z,16.20
2018-04-23T20:37:17.182Z,16.20
2018-04-23T20:39:44.870Z,16.10
2018-04-23T20:42:12.545Z,16.10
2018-04-23T20:44:40.599Z,16.00
2018-04-23T20:47:08.503Z,16.00
2018-04-23T20:49:36.292Z,15.90
2018-04-23T20:52:04.427Z,15.80
2018-04-23T20:54:32.426Z,15.70
2018-04-23T20:57:00.247Z,15.60
2018-04-23T20:59:27.951Z,15.60
2018-04-23T21:01:55.756Z,15.50
2018-04-23T21:04:25.748Z,15.60
2018-04-23T21:06:53.919Z,15.50
2018-04-23T21:09:22.342Z,15.50
2018-04-23T21:11:50.315Z,15.50
2018-04-23T21:14:18.324Z,15.50
2018-04-23T21:16:47.011Z,15.40
2018-04-23T21:19:15.345Z,15.40
2018-04-23T21:21:43.303Z,15.50
2018-04-23T21:24:11.343Z,15.40
2018-04-23T21:26:40.011Z,15.20
2018-04-23T21:29:07.941Z,15.20
2018-04-23T21:31:35.963Z,15.10
2018-04-23T21:34:04.635Z,14.90
2018-04-23T21:36:32.462Z,14.80
2018-04-23T21:39:00.340Z,14.80
2018-04-23T21:41:28.990Z,14.70
2018-04-23T21:43:57.394Z,14.60
2018-04-23T21:46:26.299Z,14.70
2018-04-23T21:48:55.319Z,14.70
2018-04-23T21:51:23.663Z,14.80
2018-04-23T21:53:51.540Z,14.80
2018-04-23T21:56:19.939Z,14.80
2018-04-23T21:58:47.590Z,14.90
2018-04-23T22:01:15.298Z,14.90
2018-04-23T22:03:42.997Z,14.90
2018-04-23T22:06:10.659Z,14.90
2018-04-23T22:08:38.347Z,15.00
2018-04-23T22:11:06.055Z,15.00
2018-04-23T22:13:33.719Z,15.00
2018-04-23T22:16:01.414Z,15.00
2018-04-23T22:18:29.106Z,14.90
2018-04-23T22:20:56.756Z,15.00
2018-04-23T22:23:24.464Z,15.00
2018-04-23T22:25:52.158Z,15.00
2018-04-23T22:28:19.798Z,15.00
2018-04-23T22:30:47.491Z,15.00
2018-04-23T22:33:15.203Z,14.90
2018-04-23T22:35:42.839Z,14.90
2018-04-23T22:38:11.282Z,14.90
2018-04-23T22:40:39.778Z,14.80
2018-04-23T22:43:07.423Z,14.80
2018-04-23T22:45:35.869Z,14.70
2018-04-23T22:48:03.572Z,14.70
2018-04-23T22:50:31.277Z,14.70
2018-04-23T22:52:58.965Z,14.60
2018-04-23T22:55:26.646Z,14.60
2018-04-23T22:57:55.090Z,14.40
2018-04-23T23:00:22.795Z,14.40
2018-04-23T23:02:50.497Z,14.30
2018-04-23T23:05:18.150Z,14.20
2018-04-23T23:07:45.815Z,14.10
2018-04-23T23:10:13.504Z,14.10
2018-04-23T23:12:41.149Z,14.00
2018-04-23T23:15:08.818Z,13.90
2018-04-23T23:17:36.501Z,13.80
2018-04-23T23:20:04.927Z,13.60
2018-04-23T23:22:32.614Z,13.60
2018-04-23T23:25:00.279Z,13.50
2018-04-23T23:27:27.954Z,13.40
2018-04-23T23:29:56.389Z,13.40
2018-04-23T23:32:24.061Z,13.40
2018-04-23T23:34:51.710Z,13.30
2018-04-23T23:37:19.392Z,13.40
2018-04-23T23:39:47.070Z,13.30
2018-04-23T23:42:14.709Z,13.30
2018-04-23T23:44:42.411Z,13.30
2018-04-23T23:47:10.868Z,13.40
2018-04-23T23:49:39.271Z,13.50
2018-04-23T23:52:06.981Z,13.50
2018-04-23T23:54:34.661Z,13.50
2018-04-23T23:57:02.313Z,13.60
2018-04-23T23:59:30.027Z,13.50
